createdAt,value
2022-11-07T00:00:18.438Z,29.00
2022-11-07T00:02:43.208Z,31.25
2022-11-07T00:05:09.386Z,29.43
2022-11-07T00:07:57.799Z,34.80
2022-11-07T00:09:08.238Z,30.82
2022-11-07T00:11:34.671Z,35.72
2022-11-07T00:12:43.713Z,39.72
2022-11-07T00:15:08.533Z,34.75
2022-11-07T00:17:34.852Z,33.37
2022-11-07T00:18:44.980Z,31.57
2022-11-07T00:21:10.331Z,30.52
2022-11-07T00:23:35.886Z,30.02
2022-11-07T00:26:07.380Z,35.08
2022-11-07T00:28:42.419Z,33.53
2022-11-07T00:31:08.689Z,28.22
2022-11-07T00:33:33.961Z,37.60
2022-11-07T00:36:01.577Z,29.93
2022-11-07T00:37:10.269Z,28.62
2022-11-07T00:39:36.752Z,30.43
2022-11-07T00:40:55.060Z,31.73
2022-11-07T00:43:19.333Z,32.63
2022-11-07T00:45:44.007Z,36.22
2022-11-07T00:46:53.896Z,32.73
2022-11-07T00:48:02.532Z,33.27
2022-11-07T00:49:11.728Z,33.87
2022-11-07T00:50:21.453Z,30.77
2022-11-07T00:52:46.053Z,33.35
2022-11-07T00:55:11.768Z,30.33
2022-11-07T00:57:41.374Z,31.07
2022-11-07T00:58:56.236Z,29.87
2022-11-07T01:01:25.549Z,29.50
2022-11-07T01:04:09.567Z,32.47
2022-11-07T01:06:38.119Z,30.25
2022-11-07T01:07:47.888Z,32.60
2022-11-07T01:10:14.357Z,32.57
2022-11-07T01:11:25.877Z,28.03
2022-11-07T01:13:52.594Z,30.70
2022-11-07T01:16:18.745Z,31.18
2022-11-07T01:17:30.531Z,32.45
2022-11-07T01:18:40.202Z,29.33
2022-11-07T01:19:49.353Z,26.63
2022-11-07T01:20:59.218Z,28.42
2022-11-07T01:23:28.021Z,29.62
2022-11-07T01:25:52.006Z,29.63
2022-11-07T01:28:16.897Z,30.46
2022-11-07T01:30:43.347Z,35.45
2022-11-07T01:31:52.795Z,33.04
2022-11-07T01:34:17.918Z,34.67
2022-11-07T01:36:42.239Z,30.22
2022-11-07T01:37:51.352Z,31.15
2022-11-07T01:39:01.805Z,29.85
2022-11-07T01:41:35.053Z,26.42
2022-11-07T01:44:13.816Z,29.65
2022-11-07T01:45:29.690Z,26.25
2022-11-07T01:48:00.145Z,28.83
2022-11-07T01:50:42.179Z,27.83
2022-11-07T01:53:22.165Z,29.15
2022-11-07T01:54:35.542Z,26.83
2022-11-07T01:58:23.230Z,25.28
2022-11-07T01:59:35.017Z,28.70
2022-11-07T02:02:00.721Z,31.13
2022-11-07T02:04:31.585Z,32.42
2022-11-07T02:07:20.616Z,30.72
2022-11-07T02:08:33.169Z,35.00
2022-11-07T02:09:43.764Z,33.50
2022-11-07T02:10:54.281Z,34.67
2022-11-07T02:12:04.139Z,29.50
2022-11-07T02:14:33.455Z,25.77
2022-11-07T02:16:57.596Z,27.97
2022-11-07T02:20:52.706Z,27.00
2022-11-07T02:22:15.173Z,28.42
2022-11-07T02:24:51.248Z,24.67
2022-11-07T02:26:01.102Z,26.03
2022-11-07T02:28:31.054Z,24.60
2022-11-07T02:33:32.997Z,25.78
2022-11-07T02:34:45.611Z,27.02
2022-11-07T02:38:37.217Z,25.25
2022-11-07T02:41:06.316Z,25.20
2022-11-07T02:43:55.407Z,27.58
2022-11-07T02:45:05.875Z,28.60
2022-11-07T02:47:33.045Z,26.55
2022-11-07T02:48:45.570Z,28.63
2022-11-07T02:51:11.059Z,33.82
2022-11-07T02:53:37.180Z,25.50
2022-11-07T02:54:46.361Z,26.07
2022-11-07T02:57:30.919Z,26.95
2022-11-07T02:58:41.620Z,23.35
2022-11-07T03:01:06.930Z,24.93
2022-11-07T03:03:31.981Z,23.93
2022-11-07T03:05:56.287Z,21.63
2022-11-07T03:08:22.223Z,19.80
2022-11-07T03:09:32.585Z,25.52
2022-11-07T03:11:56.303Z,25.75
2022-11-07T03:14:21.098Z,26.63
2022-11-07T03:16:46.746Z,27.40
2022-11-07T03:19:12.654Z,29.40
2022-11-07T03:21:36.742Z,28.37
2022-11-07T03:24:04.098Z,27.05
2022-11-07T03:26:29.379Z,26.15
2022-11-07T03:29:04.404Z,23.90
2022-11-07T03:30:14.481Z,24.72
2022-11-07T03:32:40.170Z,24.30
2022-11-07T03:35:05.171Z,22.20
2022-11-07T03:37:30.532Z,21.97
2022-11-07T03:39:55.303Z,23.08
2022-11-07T03:42:21.818Z,21.45
2022-11-07T03:43:30.835Z,23.23
2022-11-07T03:45:56.170Z,25.75
2022-11-07T03:47:05.533Z,23.50
2022-11-07T03:49:29.543Z,25.72
2022-11-07T03:50:39.423Z,25.27
2022-11-07T03:51:51.120Z,25.68
2022-11-07T03:53:00.891Z,28.78
2022-11-07T03:55:26.031Z,27.72
2022-11-07T03:57:51.098Z,23.85
2022-11-07T04:00:18.185Z,23.35
2022-11-07T04:02:44.963Z,24.35
2022-11-07T04:03:56.314Z,26.20
2022-11-07T04:06:23.363Z,21.42
2022-11-07T04:07:33.239Z,17.28
2022-11-07T04:09:58.585Z,23.13
2022-11-07T04:12:41.973Z,18.50
2022-11-07T04:15:44.655Z,20.37
2022-11-07T04:18:28.806Z,21.90
2022-11-07T04:20:52.389Z,26.65
2022-11-07T04:22:01.652Z,21.95
2022-11-07T04:23:10.875Z,26.80
2022-11-07T04:25:53.420Z,26.12
2022-11-07T04:28:37.327Z,23.80
2022-11-07T04:29:46.927Z,25.98
2022-11-07T04:32:10.514Z,28.27
2022-11-07T04:34:35.660Z,25.77
2022-11-07T04:36:59.928Z,21.72
2022-11-07T04:39:23.575Z,21.46
2022-11-07T04:41:48.899Z,19.73
2022-11-07T04:42:58.650Z,21.05
2022-11-07T04:44:08.282Z,19.57
2022-11-07T04:46:32.438Z,19.57
2022-11-07T04:47:41.636Z,18.90
2022-11-07T04:50:07.821Z,20.87
2022-11-07T04:51:24.208Z,18.28
2022-11-07T04:53:48.547Z,22.45
2022-11-07T04:54:59.028Z,22.10
2022-11-07T04:57:23.617Z,21.15
2022-11-07T04:59:47.066Z,23.98
2022-11-07T05:02:14.195Z,23.75
2022-11-07T05:04:53.903Z,24.87
2022-11-07T06:50:12.658Z,18.72
2022-11-07T06:51:21.634Z,18.17
2022-11-07T06:53:45.716Z,15.35
2022-11-07T06:57:30.164Z,19.23
2022-11-07T06:59:55.948Z,22.72
2022-11-07T07:02:44.134Z,23.27
2022-11-07T07:03:34.799Z,23.55
2022-11-07T07:04:44.059Z,22.85
2022-11-07T07:07:29.927Z,24.20
2022-11-07T07:09:54.728Z,24.10
2022-11-07T07:11:06.915Z,24.45
2022-11-07T07:13:32.116Z,25.03
2022-11-07T07:14:41.828Z,26.83
2022-11-07T07:17:12.220Z,30.07
2022-11-07T07:19:47.347Z,24.58
2022-11-07T07:21:05.610Z,25.85
2022-11-07T07:22:15.519Z,26.34
2022-11-07T07:24:40.515Z,30.20
2022-11-07T07:27:04.538Z,26.62
2022-11-07T07:29:29.739Z,26.67
2022-11-07T07:30:38.978Z,25.68
2022-11-07T07:33:04.877Z,27.35
2022-11-07T07:35:29.052Z,27.50
2022-11-07T07:36:38.094Z,26.33
2022-11-07T07:39:08.660Z,27.95
2022-11-07T07:41:39.881Z,31.43
2022-11-07T07:44:00.504Z,34.23
2022-11-07T07:46:28.530Z,32.93
2022-11-07T07:48:54.804Z,30.55
2022-11-07T07:51:21.479Z,23.28
2022-11-07T07:53:45.163Z,19.34
2022-11-07T07:56:11.190Z,21.60
2022-11-07T07:57:20.854Z,19.58
2022-11-07T07:59:47.594Z,18.57
2022-11-07T08:02:15.037Z,20.42
2022-11-07T08:03:50.593Z,22.07
2022-11-07T08:05:58.918Z,28.43
2022-11-07T08:08:25.463Z,23.60
2022-11-07T08:10:59.013Z,22.65
2022-11-07T08:13:25.971Z,24.00
2022-11-07T08:15:51.454Z,25.70
2022-11-07T08:17:10.692Z,25.73
2022-11-07T08:18:22.176Z,21.83
2022-11-07T08:19:33.151Z,25.72
2022-11-07T08:20:43.459Z,26.30
2022-11-07T08:21:54.247Z,26.90
2022-11-07T08:24:13.899Z,29.97
2022-11-07T08:26:38.418Z,24.70
2022-11-07T08:29:08.094Z,25.53
2022-11-07T08:30:18.288Z,27.68
2022-11-07T08:32:41.940Z,23.30
2022-11-07T08:35:05.853Z,21.07
2022-11-07T08:36:15.874Z,22.83
2022-11-07T08:38:39.507Z,22.57
2022-11-07T08:39:48.829Z,20.90
2022-11-07T08:41:05.401Z,21.82
2022-11-07T08:43:30.267Z,22.05
2022-11-07T08:45:55.621Z,25.78
2022-11-07T08:47:08.616Z,22.23
2022-11-07T08:48:18.307Z,24.20
2022-11-07T08:49:27.903Z,24.05
2022-11-07T08:50:38.781Z,24.83
2022-11-07T08:54:12.089Z,21.30
2022-11-07T08:56:35.930Z,23.88
2022-11-07T08:59:00.126Z,25.20
2022-11-07T09:01:25.373Z,21.77
2022-11-07T09:03:56.441Z,23.02
2022-11-07T09:06:15.947Z,23.18
2022-11-07T09:08:40.570Z,20.98
2022-11-07T09:09:49.733Z,22.87
2022-11-07T09:12:19.265Z,23.25
2022-11-07T09:13:30.804Z,24.65
2022-11-07T09:14:42.895Z,22.23
2022-11-07T09:16:01.066Z,21.05
2022-11-07T09:17:09.878Z,21.35
2022-11-07T09:19:56.862Z,22.02
2022-11-07T09:22:20.639Z,22.73
2022-11-07T09:24:44.030Z,21.47
2022-11-07T09:27:08.017Z,21.95
2022-11-07T09:28:17.225Z,20.52
2022-11-07T09:30:41.468Z,23.17
2022-11-07T09:31:50.422Z,23.30
2022-11-07T09:33:00.339Z,21.72
2022-11-07T09:35:25.989Z,23.23
2022-11-07T09:37:51.799Z,22.10
2022-11-07T09:40:26.372Z,21.42
2022-11-07T09:43:40.299Z,23.92
2022-11-07T09:46:26.454Z,24.07
2022-11-07T09:49:19.814Z,22.67
2022-11-07T09:53:40.684Z,26.95
2022-11-07T09:56:18.444Z,22.12
2022-11-07T09:58:51.786Z,21.50
2022-11-07T10:01:22.878Z,20.55
2022-11-07T10:04:22.755Z,25.25
2022-11-07T10:06:37.060Z,22.22
2022-11-07T10:09:25.827Z,24.25
2022-11-07T10:10:41.555Z,24.80
2022-11-07T10:12:00.602Z,23.80
2022-11-07T10:14:55.506Z,22.97
2022-11-07T10:18:13.029Z,26.48
2022-11-07T10:21:38.511Z,20.68
2022-11-07T10:22:39.373Z,22.92
2022-11-07T10:26:00.768Z,24.65
2022-11-07T10:28:29.682Z,27.10
2022-11-07T10:31:07.544Z,24.45
2022-11-07T10:34:06.744Z,21.62
2022-11-07T10:36:42.531Z,25.22
2022-11-07T10:37:54.216Z,23.48
2022-11-07T10:40:34.658Z,25.55
2022-11-07T10:44:49.091Z,23.57
2022-11-07T10:45:59.332Z,25.30
2022-11-07T10:48:38.880Z,23.23
2022-11-07T10:51:36.212Z,25.95
2022-11-07T10:52:54.821Z,22.77
2022-11-07T10:55:22.517Z,24.50
2022-11-07T10:57:56.283Z,25.93
2022-11-07T11:00:30.738Z,24.38
2022-11-07T11:01:40.927Z,24.30
2022-11-07T11:04:06.521Z,24.35
2022-11-07T11:06:41.247Z,23.20
2022-11-07T11:09:16.615Z,24.20
2022-11-07T11:10:29.432Z,25.42
2022-11-07T11:11:39.160Z,23.03
2022-11-07T11:14:14.266Z,23.42
2022-11-07T11:16:43.332Z,20.72
2022-11-07T11:19:29.398Z,24.70
2022-11-07T11:21:59.005Z,26.35
2022-11-07T11:24:35.041Z,23.35
2022-11-07T11:25:49.271Z,25.03
2022-11-07T11:29:57.776Z,21.32
2022-11-07T11:32:41.698Z,20.45
2022-11-07T11:34:02.857Z,24.28
2022-11-07T11:35:22.924Z,20.05
2022-11-07T11:36:36.454Z,20.37
2022-11-07T11:37:51.064Z,23.00
2022-11-07T11:40:22.555Z,21.83
2022-11-07T11:43:04.534Z,19.05
2022-11-07T11:45:56.984Z,20.07
2022-11-07T11:48:49.025Z,22.32
2022-11-07T11:51:46.793Z,19.30
2022-11-07T11:52:55.870Z,18.88
2022-11-07T11:54:10.498Z,22.42
2022-11-07T11:55:23.053Z,19.07
2022-11-07T11:58:05.052Z,20.38
2022-11-07T12:05:04.778Z,17.20
2022-11-07T12:08:01.399Z,16.42
2022-11-07T12:11:00.832Z,16.50
2022-11-07T12:14:25.888Z,16.28
2022-11-07T12:17:15.927Z,18.08
2022-11-07T12:20:05.254Z,17.12
2022-11-07T12:22:59.277Z,18.98
2022-11-07T12:25:47.929Z,18.04
2022-11-07T12:28:54.702Z,20.97
2022-11-07T12:32:05.065Z,19.52
2022-11-07T12:35:00.780Z,17.83
2022-11-07T12:38:26.359Z,18.13
2022-11-07T12:42:33.197Z,19.63
2022-11-07T12:45:41.045Z,22.98
2022-11-07T12:48:26.216Z,20.58
2022-11-07T12:53:17.754Z,21.10
2022-11-07T12:54:48.374Z,21.50
2022-11-07T12:58:44.636Z,22.72
2022-11-07T13:01:27.581Z,17.98
2022-11-07T13:02:58.763Z,18.72
2022-11-07T13:05:49.502Z,20.68
2022-11-07T13:08:35.059Z,21.33
2022-11-07T13:11:26.463Z,21.67
2022-11-07T13:14:29.285Z,21.27
2022-11-07T13:17:11.076Z,19.10
2022-11-07T13:18:26.664Z,19.43
2022-11-07T13:19:40.782Z,21.90
2022-11-07T13:22:23.723Z,22.85
2022-11-07T13:25:18.694Z,18.45
2022-11-07T13:26:48.180Z,20.75
2022-11-07T13:29:29.275Z,20.25
2022-11-07T13:32:10.883Z,18.40
2022-11-07T13:35:00.029Z,18.15
2022-11-07T13:37:46.099Z,20.45
2022-11-07T13:38:59.481Z,20.33
2022-11-07T13:40:15.932Z,23.27
2022-11-07T13:42:42.344Z,18.30
2022-11-07T13:43:58.554Z,20.65
2022-11-07T13:46:45.561Z,20.55
2022-11-07T13:49:19.057Z,16.52
2022-11-07T13:52:01.200Z,19.53
2022-11-07T13:54:50.892Z,19.08
2022-11-07T13:57:25.531Z,21.97
2022-11-07T13:58:38.234Z,18.35
2022-11-07T14:01:22.507Z,18.70
2022-11-07T14:03:50.290Z,20.43
2022-11-07T14:06:20.707Z,19.07
2022-11-07T14:08:51.096Z,18.15
2022-11-07T14:10:02.376Z,18.30
2022-11-07T14:12:37.065Z,15.72
2022-11-07T14:13:49.279Z,18.28
2022-11-07T14:16:25.900Z,21.50
2022-11-07T14:17:36.231Z,20.20
2022-11-07T14:20:16.797Z,20.20
2022-11-07T14:22:57.894Z,18.27
2022-11-07T14:25:36.663Z,19.07
2022-11-07T14:28:17.705Z,18.55
2022-11-07T14:29:28.421Z,18.02
2022-11-07T14:32:01.945Z,18.55
2022-11-07T14:34:39.875Z,19.18
2022-11-07T14:37:07.436Z,17.40
2022-11-07T14:39:38.727Z,18.05
2022-11-07T14:42:06.246Z,19.30
2022-11-07T14:44:55.669Z,21.70
2022-11-07T14:48:35.878Z,19.28
2022-11-07T14:49:47.713Z,20.50
2022-11-07T14:52:19.154Z,22.05
2022-11-07T14:55:05.862Z,19.17
2022-11-07T14:56:18.476Z,20.62
2022-11-07T14:57:28.252Z,19.78
2022-11-07T14:58:37.090Z,18.47
2022-11-07T15:01:12.843Z,20.23
2022-11-07T15:03:53.260Z,19.67
2022-11-07T15:05:10.665Z,19.40
2022-11-07T15:07:47.146Z,17.60
2022-11-07T15:10:39.907Z,18.85
2022-11-07T15:13:24.847Z,21.35
2022-11-07T15:16:10.693Z,18.70
2022-11-07T15:17:25.817Z,17.98
2022-11-07T15:20:06.787Z,18.27
2022-11-07T15:22:45.619Z,18.75
2022-11-07T15:25:28.740Z,19.28
2022-11-07T15:26:38.504Z,17.85
2022-11-07T15:27:47.194Z,17.95
2022-11-07T15:30:29.929Z,17.55
2022-11-07T15:32:56.552Z,20.73
2022-11-07T15:37:55.163Z,18.02
2022-11-07T15:40:21.200Z,18.73
2022-11-07T15:42:45.836Z,19.25
2022-11-07T15:43:55.252Z,20.00
2022-11-07T15:46:38.836Z,19.07
2022-11-07T15:47:48.845Z,20.50
2022-11-07T15:50:18.474Z,18.43
2022-11-07T15:52:44.082Z,20.80
2022-11-07T15:55:12.090Z,21.25
2022-11-07T15:57:41.002Z,20.12
2022-11-07T16:00:18.670Z,19.35
2022-11-07T16:02:44.296Z,22.77
2022-11-07T16:03:53.178Z,23.13
2022-11-07T16:06:24.240Z,21.52
2022-11-07T16:07:34.154Z,19.32
2022-11-07T16:09:59.948Z,22.00
2022-11-07T16:11:12.107Z,18.93
2022-11-07T16:13:38.359Z,21.08
2022-11-07T16:16:06.237Z,21.00
2022-11-07T16:18:42.353Z,18.65
2022-11-07T16:21:12.983Z,22.02
2022-11-07T16:23:39.231Z,21.22
2022-11-07T16:26:02.924Z,21.07
2022-11-07T16:27:15.727Z,21.42
2022-11-07T16:29:43.916Z,21.10
2022-11-07T16:32:17.331Z,21.77
2022-11-07T16:34:39.248Z,21.05
2022-11-07T16:37:06.966Z,20.03
2022-11-07T16:39:33.747Z,23.53
2022-11-07T16:40:44.086Z,20.40
2022-11-07T16:43:07.763Z,21.18
2022-11-07T16:45:32.193Z,21.02
2022-11-07T16:47:59.431Z,22.62
2022-11-07T16:50:30.944Z,20.85
2022-11-07T16:53:00.400Z,20.70
2022-11-07T16:55:25.824Z,21.55
2022-11-07T16:57:50.373Z,20.85
2022-11-07T16:58:59.864Z,21.25
2022-11-07T17:01:35.413Z,19.30
2022-11-07T17:04:01.068Z,19.75
2022-11-07T17:05:10.658Z,20.80
2022-11-07T17:06:34.442Z,21.65
2022-11-07T17:09:08.696Z,20.56
2022-11-07T17:10:18.292Z,20.12
2022-11-07T17:12:43.131Z,19.82
2022-11-07T17:15:09.291Z,20.87
2022-11-07T17:16:23.909Z,22.48
2022-11-07T17:17:33.017Z,20.87
2022-11-07T17:19:58.312Z,21.23
2022-11-07T17:22:27.092Z,23.55
2022-11-07T17:23:37.289Z,23.17
2022-11-07T17:26:03.831Z,20.07
2022-11-07T17:28:39.794Z,20.13
2022-11-07T17:29:49.823Z,22.57
2022-11-07T17:32:13.428Z,21.55
2022-11-07T17:34:36.850Z,20.85
2022-11-07T17:37:01.745Z,23.05
2022-11-07T17:39:31.317Z,22.45
2022-11-07T17:40:40.365Z,22.10
2022-11-07T17:43:05.386Z,23.27
2022-11-07T17:45:31.574Z,24.53
2022-11-07T17:47:59.465Z,24.45
2022-11-07T17:50:47.357Z,25.72
2022-11-07T17:53:12.739Z,25.13
2022-11-07T17:55:38.422Z,23.67
2022-11-07T17:58:02.440Z,19.87
2022-11-07T17:59:17.414Z,24.00
2022-11-07T18:00:27.857Z,24.78
2022-11-07T18:02:53.607Z,24.23
2022-11-07T18:05:21.842Z,24.43
2022-11-07T18:09:01.412Z,26.37
2022-11-07T18:10:12.697Z,24.13
2022-11-07T18:12:39.470Z,26.58
2022-11-07T18:15:13.884Z,25.75
2022-11-07T18:17:42.076Z,25.10
2022-11-07T18:20:09.427Z,19.62
2022-11-07T18:22:34.654Z,18.78
2022-11-07T18:24:58.768Z,18.48
2022-11-07T18:27:27.037Z,18.20
2022-11-07T18:29:54.086Z,21.32
2022-11-07T18:31:05.744Z,22.35
2022-11-07T18:33:30.557Z,21.00
2022-11-07T18:35:58.183Z,22.57
2022-11-07T18:38:21.787Z,34.53
2022-11-07T18:39:30.658Z,25.05
2022-11-07T18:41:54.694Z,22.85
2022-11-07T18:43:04.304Z,22.98
2022-11-07T18:45:29.676Z,25.62
2022-11-07T18:46:39.557Z,23.95
2022-11-07T18:47:58.618Z,23.30
2022-11-07T18:50:23.289Z,22.80
2022-11-07T18:52:49.409Z,28.00
2022-11-07T18:55:16.775Z,26.28
2022-11-07T18:56:27.027Z,23.97
2022-11-07T18:58:51.775Z,25.43
2022-11-07T19:01:22.404Z,26.66
2022-11-07T19:03:48.108Z,25.93
2022-11-07T19:05:00.102Z,27.00
2022-11-07T19:06:12.220Z,25.93
2022-11-07T19:08:39.952Z,25.98
2022-11-07T19:11:09.167Z,26.12
2022-11-07T19:12:18.472Z,25.30
2022-11-07T19:14:42.711Z,28.22
2022-11-07T19:17:08.778Z,29.18
2022-11-07T19:18:19.138Z,26.35
2022-11-07T19:19:28.759Z,28.20
2022-11-07T19:21:54.484Z,28.07
2022-11-07T19:23:03.389Z,23.50
2022-11-07T19:24:13.264Z,23.77
2022-11-07T19:26:40.008Z,21.93
2022-11-07T19:29:11.569Z,23.83
2022-11-07T19:31:39.052Z,23.25
2022-11-07T19:34:03.252Z,22.38
2022-11-07T19:36:26.854Z,24.17
2022-11-07T19:37:36.197Z,25.18
2022-11-07T19:38:46.055Z,25.53
2022-11-07T19:39:55.957Z,24.42
2022-11-07T19:41:06.672Z,27.30
2022-11-07T19:43:32.434Z,27.32
2022-11-07T19:45:56.938Z,29.10
2022-11-07T19:48:22.269Z,27.40
2022-11-07T19:49:32.019Z,26.95
2022-11-07T19:51:56.654Z,28.87
2022-11-07T19:53:06.070Z,35.07
2022-11-07T19:55:30.979Z,31.25
2022-11-07T19:56:40.302Z,31.80
2022-11-07T19:59:06.188Z,31.00
2022-11-07T20:00:17.756Z,34.30
2022-11-07T20:02:48.272Z,32.26
2022-11-07T20:05:15.374Z,30.30
2022-11-07T20:07:50.286Z,28.58
2022-11-07T20:10:14.963Z,29.23
2022-11-07T20:12:40.403Z,29.67
2022-11-07T20:15:06.218Z,32.02
2022-11-07T20:18:40.948Z,33.38
2022-11-07T20:19:50.162Z,29.10
2022-11-07T20:22:16.814Z,27.25
2022-11-07T20:25:00.484Z,30.57
2022-11-07T20:27:30.330Z,29.18
2022-11-07T20:29:56.489Z,26.97
2022-11-07T20:31:13.489Z,30.17
2022-11-07T20:34:00.496Z,31.48
2022-11-07T20:36:25.698Z,30.72
2022-11-07T20:37:36.899Z,30.32
2022-11-07T20:38:47.112Z,35.53
2022-11-07T20:41:12.540Z,30.32
2022-11-07T20:42:21.637Z,32.00
2022-11-07T20:44:46.290Z,32.07
2022-11-07T20:45:57.147Z,30.52
2022-11-07T20:48:23.560Z,30.05
2022-11-07T20:50:49.035Z,30.27
2022-11-07T20:51:58.582Z,31.03
2022-11-07T20:53:08.901Z,30.60
2022-11-07T20:54:18.024Z,28.90
2022-11-07T20:56:43.309Z,30.47
2022-11-07T20:57:52.513Z,29.48
2022-11-07T21:00:19.117Z,32.85
2022-11-07T21:02:52.236Z,31.80
2022-11-07T21:04:05.804Z,29.70
2022-11-07T21:06:33.935Z,28.95
2022-11-07T21:08:59.075Z,30.57
2022-11-07T21:11:24.951Z,33.08
2022-11-07T21:13:52.933Z,31.50
2022-11-07T21:16:15.071Z,28.57
2022-11-07T21:18:39.423Z,29.32
2022-11-07T21:21:07.001Z,31.38
2022-11-07T21:22:15.764Z,31.55
2022-11-07T21:24:43.299Z,29.22
2022-11-07T21:27:07.447Z,33.13
2022-11-07T21:29:33.219Z,28.70
2022-11-07T21:32:02.044Z,29.73
2022-11-07T21:34:28.140Z,30.45
2022-11-07T21:36:58.018Z,30.40
2022-11-07T21:39:42.204Z,29.97
2022-11-07T21:42:07.712Z,32.15
2022-11-07T21:43:17.869Z,27.55
2022-11-07T21:45:42.213Z,30.45
2022-11-07T21:48:06.158Z,32.02
2022-11-07T21:50:44.241Z,29.32
2022-11-07T21:52:59.458Z,29.87
2022-11-07T21:55:25.608Z,30.22
2022-11-07T21:57:53.357Z,31.47
2022-11-07T22:00:41.084Z,31.02
2022-11-07T22:03:06.177Z,31.03
2022-11-07T22:05:30.391Z,35.05
2022-11-07T22:06:43.058Z,34.58
2022-11-07T22:09:09.432Z,35.17
2022-11-07T22:11:34.605Z,30.75
2022-11-07T22:12:43.764Z,34.35
2022-11-07T22:15:10.408Z,34.00
2022-11-07T22:16:21.906Z,34.05
2022-11-07T22:17:31.342Z,31.30
2022-11-07T22:18:40.933Z,32.53
2022-11-07T22:21:08.553Z,31.70
2022-11-07T22:23:35.076Z,33.82
2022-11-07T22:24:45.256Z,31.95
2022-11-07T22:25:54.909Z,32.35
2022-11-07T22:28:18.624Z,31.80
2022-11-07T22:30:43.200Z,30.57
2022-11-07T22:33:06.819Z,37.07
2022-11-07T22:35:36.282Z,32.42
2022-11-07T22:38:00.406Z,33.40
2022-11-07T22:40:25.999Z,30.50
2022-11-07T22:42:54.671Z,33.98
2022-11-07T22:45:18.033Z,33.97
2022-11-07T22:47:46.281Z,30.08
2022-11-07T22:49:03.361Z,35.55
2022-11-07T22:50:12.157Z,33.22
2022-11-07T22:52:39.603Z,33.10
2022-11-07T22:55:06.504Z,31.85
2022-11-07T22:57:34.508Z,32.62
2022-11-07T23:00:19.557Z,33.28
2022-11-07T23:01:18.927Z,33.75
2022-11-07T23:02:28.250Z,34.45
2022-11-07T23:04:52.900Z,33.80
2022-11-07T23:07:18.871Z,34.27
2022-11-07T23:09:43.377Z,33.03
2022-11-07T23:11:34.934Z,31.35
2022-11-07T23:12:10.997Z,32.80
2022-11-07T23:13:25.811Z,32.20
2022-11-07T23:14:35.583Z,31.93
2022-11-07T23:16:59.523Z,32.73
2022-11-07T23:18:08.113Z,33.27
2022-11-07T23:19:19.137Z,27.03
2022-11-07T23:20:46.688Z,30.13
2022-11-07T23:21:56.988Z,29.95
2022-11-07T23:23:06.151Z,29.70
2022-11-07T23:24:15.876Z,30.03
2022-11-07T23:26:40.944Z,30.70
2022-11-07T23:30:24.693Z,31.60
2022-11-07T23:31:34.798Z,30.83
2022-11-07T23:32:43.954Z,31.03
2022-11-07T23:35:09.390Z,29.45
2022-11-07T23:37:35.425Z,30.45
2022-11-07T23:38:45.362Z,32.42
2022-11-07T23:39:56.632Z,24.17
2022-11-07T23:42:22.591Z,28.28
2022-11-07T23:45:10.592Z,31.75
2022-11-07T23:48:12.763Z,32.43
2022-11-07T23:51:03.573Z,29.77
2022-11-07T23:52:14.427Z,30.70
2022-11-07T23:53:43.380Z,28.53
2022-11-07T23:56:27.650Z,27.46
2022-11-07T23:59:14.541Z,25.28
